createdAt,value
2019-05-25T00:00:40.739Z,67.81
2019-05-25T00:05:45.771Z,67.41
2019-05-25T00:10:50.940Z,67.45
2019-05-25T00:15:55.991Z,67.39
2019-05-25T00:21:01.017Z,67.43
2019-05-25T00:26:06.082Z,67.69
2019-05-25T00:31:12.222Z,67.66
2019-05-25T00:36:17.405Z,67.97
2019-05-25T00:41:22.561Z,67.41
2019-05-25T00:46:27.612Z,66.93
2019-05-25T00:51:32.696Z,68.03
2019-05-25T00:56:37.750Z,68.06
2019-05-25T01:01:42.831Z,68.87
2019-05-25T01:06:48.002Z,68.97
2019-05-25T01:11:53.030Z,68.98
2019-05-25T01:16:58.079Z,69.50
2019-05-25T01:22:03.653Z,69.73
2019-05-25T01:27:09.042Z,70.10
2019-05-25T01:32:14.417Z,70.36
2019-05-25T01:37:19.455Z,70.53
2019-05-25T01:42:24.602Z,70.64
2019-05-25T01:47:29.624Z,70.98
2019-05-25T01:52:34.663Z,70.09
2019-05-25T01:57:40.762Z,69.73
2019-05-25T02:02:45.799Z,69.25
2019-05-25T02:07:50.840Z,69.55
2019-05-25T02:12:55.971Z,69.91
2019-05-25T02:18:00.994Z,69.53
2019-05-25T02:23:06.431Z,69.06
2019-05-25T02:28:11.464Z,68.92
2019-05-25T02:33:17.591Z,68.90
2019-05-25T02:38:25.431Z,69.16
2019-05-25T02:43:32.253Z,69.03
2019-05-25T02:48:39.707Z,69.58
2019-05-25T02:53:46.329Z,69.92
2019-05-25T02:58:51.326Z,69.79
2019-05-25T03:03:56.378Z,69.88
2019-05-25T03:09:01.797Z,70.16
2019-05-25T03:14:06.946Z,70.92
2019-05-25T03:19:12.314Z,71.29
2019-05-25T03:24:17.365Z,71.84
2019-05-25T03:29:22.426Z,71.76
2019-05-25T03:34:27.515Z,71.72
2019-05-25T03:39:34.031Z,71.72
2019-05-25T03:44:39.076Z,71.47
2019-05-25T03:49:44.138Z,71.64
2019-05-25T03:54:49.249Z,71.89
2019-05-25T03:59:54.254Z,72.21
2019-05-25T04:04:59.299Z,72.30
2019-05-25T04:10:06.065Z,72.36
2019-05-25T04:15:15.592Z,73.74
2019-05-25T04:20:20.651Z,73.59
2019-05-25T04:25:26.039Z,74.97
2019-05-25T04:30:31.105Z,75.28
2019-05-25T04:35:36.217Z,74.87
2019-05-25T04:40:41.341Z,75.21
2019-05-25T04:45:46.479Z,75.15
2019-05-25T04:50:51.522Z,75.01
2019-05-25T04:55:56.611Z,75.09
2019-05-25T05:01:01.691Z,75.07
2019-05-25T05:06:06.779Z,75.42
2019-05-25T05:11:11.789Z,75.79
2019-05-25T05:16:16.904Z,75.52
2019-05-25T05:21:21.891Z,75.86
2019-05-25T05:26:26.975Z,75.88
2019-05-25T05:31:32.333Z,76.36
2019-05-25T05:36:37.897Z,76.28
2019-05-25T05:41:42.949Z,75.77
2019-05-25T05:46:48.092Z,75.27
2019-05-25T05:51:53.773Z,74.87
2019-05-25T05:57:11.613Z,74.91
2019-05-25T06:02:05.492Z,74.59
2019-05-25T06:07:10.554Z,73.80
2019-05-25T06:12:16.031Z,74.04
2019-05-25T06:17:22.104Z,74.08
2019-05-25T06:22:27.159Z,73.33
2019-05-25T06:27:32.710Z,73.27
2019-05-25T06:32:37.794Z,73.22
2019-05-25T06:37:43.158Z,72.40
2019-05-25T06:42:48.268Z,72.29
2019-05-25T06:47:53.303Z,72.80
2019-05-25T06:52:58.370Z,72.93
2019-05-25T06:58:03.482Z,73.25
2019-05-25T07:03:08.535Z,73.77
2019-05-25T07:08:13.747Z,73.84
2019-05-25T07:13:18.852Z,73.41
2019-05-25T07:18:23.867Z,74.03
2019-05-25T07:23:28.936Z,73.31
2019-05-25T07:28:33.966Z,73.13
2019-05-25T07:33:39.014Z,73.09
2019-05-25T07:38:44.099Z,73.44
2019-05-25T07:43:49.551Z,72.67
2019-05-25T07:48:54.630Z,72.43
2019-05-25T07:53:59.679Z,70.94
2019-05-25T07:59:04.736Z,70.39
2019-05-25T08:04:09.952Z,70.39
2019-05-25T08:09:15.054Z,70.89
2019-05-25T08:14:20.126Z,71.43
2019-05-25T08:19:25.145Z,70.55
2019-05-25T08:24:30.269Z,70.01
2019-05-25T08:29:35.627Z,70.52
2019-05-25T08:34:40.702Z,70.08
2019-05-25T08:39:45.865Z,69.83
2019-05-25T08:44:51.233Z,69.62
2019-05-25T08:49:56.443Z,68.78
2019-05-25T08:55:01.535Z,69.18
2019-05-25T09:00:08.598Z,69.24
2019-05-25T09:05:13.755Z,67.83
2019-05-25T09:10:19.528Z,68.05
2019-05-25T09:15:24.830Z,68.03
2019-05-25T09:20:29.857Z,68.21
2019-05-25T09:25:35.075Z,68.39
2019-05-25T09:30:40.045Z,68.51
2019-05-25T09:35:45.416Z,68.16
2019-05-25T09:40:50.476Z,68.36
2019-05-25T09:45:55.529Z,68.38
2019-05-25T09:51:00.620Z,67.08
2019-05-25T09:56:05.643Z,67.13
2019-05-25T10:01:10.749Z,66.15
2019-05-25T10:06:15.755Z,66.38
2019-05-25T10:11:20.849Z,66.61
2019-05-25T10:16:26.239Z,65.04
2019-05-25T10:21:31.330Z,65.07
2019-05-25T10:26:36.421Z,64.55
2019-05-25T10:31:41.504Z,64.97
2019-05-25T10:36:46.541Z,65.12
2019-05-25T10:41:52.699Z,64.67
2019-05-25T10:46:57.830Z,65.09
2019-05-25T10:52:02.817Z,63.94
2019-05-25T10:57:08.977Z,63.93
2019-05-25T11:02:14.018Z,62.28
2019-05-25T11:07:20.709Z,61.65
2019-05-25T11:12:26.192Z,60.14
2019-05-25T11:17:31.299Z,59.25
2019-05-25T11:22:37.438Z,60.25
2019-05-25T11:27:42.427Z,56.97
2019-05-25T11:32:47.457Z,56.94
2019-05-25T11:37:52.545Z,56.62
2019-05-25T11:42:57.649Z,55.66
2019-05-25T11:48:02.692Z,55.37
2019-05-25T11:53:07.750Z,56.67
2019-05-25T11:58:13.487Z,58.87
2019-05-25T12:03:18.943Z,60.25
2019-05-25T12:08:24.097Z,61.48
2019-05-25T12:13:32.062Z,60.37
2019-05-25T12:18:35.942Z,59.29
2019-05-25T12:23:40.973Z,58.33
2019-05-25T12:28:46.557Z,56.16
2019-05-25T12:33:51.647Z,55.35
2019-05-25T12:38:56.715Z,55.12
2019-05-25T12:44:01.843Z,54.15
2019-05-25T12:49:06.991Z,55.03
2019-05-25T12:54:14.022Z,55.12
2019-05-25T12:59:20.283Z,55.41
2019-05-25T13:04:25.320Z,54.67
2019-05-25T13:09:30.334Z,54.58
2019-05-25T13:14:35.345Z,55.42
2019-05-25T13:19:40.380Z,55.73
2019-05-25T13:24:45.494Z,54.68
2019-05-25T13:29:51.112Z,52.14
2019-05-25T13:34:56.357Z,51.01
2019-05-25T13:40:01.452Z,52.54
2019-05-25T13:45:07.979Z,54.11
2019-05-25T13:50:13.578Z,54.53
2019-05-25T13:55:19.035Z,52.69
2019-05-25T14:00:24.146Z,51.41
2019-05-25T14:05:29.323Z,51.25
2019-05-25T14:10:34.411Z,50.25
2019-05-25T14:15:39.540Z,49.79
2019-05-25T14:20:44.883Z,48.87
2019-05-25T14:25:50.039Z,49.69
2019-05-25T14:30:55.110Z,50.41
2019-05-25T14:36:00.329Z,50.07
2019-05-25T14:41:05.413Z,50.54
2019-05-25T14:46:10.469Z,49.06
2019-05-25T14:51:15.941Z,49.66
2019-05-25T14:56:21.013Z,50.61
2019-05-25T15:01:26.126Z,50.72
2019-05-25T15:06:31.162Z,51.19
2019-05-25T15:11:36.326Z,51.06
2019-05-25T15:16:41.423Z,51.43
2019-05-25T15:21:46.962Z,51.88
2019-05-25T15:26:52.383Z,53.29
2019-05-25T15:31:57.823Z,54.05
2019-05-25T15:37:03.265Z,54.53
2019-05-25T15:42:08.913Z,54.54
2019-05-25T15:47:13.979Z,54.96
2019-05-25T15:52:19.388Z,55.48
2019-05-25T15:57:24.819Z,55.81
2019-05-25T16:02:36.674Z,55.74
2019-05-25T16:07:40.834Z,57.09
2019-05-25T16:12:46.297Z,56.72
2019-05-25T16:17:51.385Z,56.98
2019-05-25T16:22:56.490Z,57.11
2019-05-25T16:28:01.561Z,57.29
2019-05-25T16:33:12.484Z,57.36
2019-05-25T16:38:13.371Z,57.94
2019-05-25T16:43:18.533Z,58.16
2019-05-25T16:48:23.875Z,58.15
2019-05-25T16:53:28.999Z,58.84
2019-05-25T16:58:34.021Z,58.55
2019-05-25T17:03:39.025Z,58.76
2019-05-25T17:08:44.105Z,58.60
2019-05-25T17:13:49.165Z,58.16
2019-05-25T17:18:54.396Z,58.13
2019-05-25T17:23:59.530Z,58.40
2019-05-25T17:29:04.579Z,58.65
2019-05-25T17:34:09.649Z,58.56
2019-05-25T17:39:14.750Z,58.93
2019-05-25T17:44:19.971Z,59.32
2019-05-25T17:49:25.124Z,59.45
2019-05-25T17:54:30.337Z,58.67
2019-05-25T17:59:35.449Z,58.25
2019-05-25T18:04:40.637Z,58.91
2019-05-25T18:09:46.023Z,58.21
2019-05-25T18:14:51.115Z,59.01
2019-05-25T18:19:56.281Z,59.26
2019-05-25T18:25:01.424Z,59.79
2019-05-25T18:30:06.991Z,59.38
2019-05-25T18:35:12.135Z,59.45
2019-05-25T18:40:17.456Z,59.72
2019-05-25T18:45:22.619Z,59.49
2019-05-25T18:50:27.765Z,59.74
2019-05-25T18:55:32.965Z,60.48
2019-05-25T19:00:38.273Z,60.90
2019-05-25T19:05:43.430Z,61.30
2019-05-25T19:10:48.541Z,61.88
2019-05-25T19:15:53.822Z,61.63
2019-05-25T19:20:59.195Z,62.05
2019-05-25T19:26:04.438Z,62.57
2019-05-25T19:31:09.624Z,63.08
2019-05-25T19:36:14.805Z,63.25
2019-05-25T19:41:20.043Z,63.04
2019-05-25T19:46:25.157Z,63.46
2019-05-25T19:51:31.089Z,63.36
2019-05-25T19:56:36.300Z,62.82
2019-05-25T20:01:41.573Z,63.19
2019-05-25T20:06:46.644Z,63.17
2019-05-25T20:11:52.245Z,62.80
2019-05-25T20:16:57.321Z,62.43
2019-05-25T20:22:02.385Z,62.53
2019-05-25T20:27:08.673Z,62.81
2019-05-25T20:32:14.017Z,62.48
2019-05-25T20:37:20.145Z,62.33
2019-05-25T20:42:26.336Z,61.90
2019-05-25T20:47:31.877Z,61.73
2019-05-25T20:52:37.002Z,61.65
2019-05-25T20:57:42.071Z,61.85
2019-05-25T21:03:02.013Z,61.66
2019-05-25T21:07:53.925Z,62.20
2019-05-25T21:12:59.069Z,62.56
2019-05-25T21:18:04.189Z,62.68
2019-05-25T21:23:09.225Z,62.93
2019-05-25T21:28:14.331Z,62.72
2019-05-25T21:33:19.359Z,63.09
2019-05-25T21:38:24.517Z,63.36
2019-05-25T21:43:29.565Z,63.82
2019-05-25T21:48:34.640Z,63.50
2019-05-25T21:53:39.905Z,63.55
2019-05-25T21:58:44.986Z,62.91
2019-05-25T22:03:50.206Z,63.34
2019-05-25T22:08:55.222Z,63.24
2019-05-25T22:14:00.352Z,63.82
2019-05-25T22:19:05.387Z,64.68
2019-05-25T22:24:10.513Z,64.38
2019-05-25T22:29:15.589Z,64.23
2019-05-25T22:34:20.632Z,64.89
2019-05-25T22:39:25.662Z,65.18
2019-05-25T22:44:37.185Z,65.38
2019-05-25T22:49:42.294Z,64.74
2019-05-25T22:54:47.489Z,65.56
2019-05-25T22:59:52.523Z,65.95
2019-05-25T23:05:00.044Z,66.46
2019-05-25T23:10:05.914Z,66.47
2019-05-25T23:15:11.159Z,67.25
2019-05-25T23:20:16.275Z,67.16
2019-05-25T23:25:21.304Z,67.32
2019-05-25T23:30:26.522Z,67.42
2019-05-25T23:35:31.674Z,68.37
2019-05-25T23:40:36.675Z,69.43
2019-05-25T23:45:41.814Z,70.33
2019-05-25T23:50:46.867Z,70.90
2019-05-25T23:55:51.913Z,71.98
